createdAt,value
2023-12-17T00:00:05.171Z,102401.94
2023-12-17T00:02:31.773Z,102402.47
2023-12-17T00:04:58.260Z,102402.47
2023-12-17T00:07:24.852Z,102390.31
2023-12-17T00:09:51.362Z,102388.53
2023-12-17T00:12:17.906Z,102391.66
2023-12-17T00:14:44.528Z,102389.84
2023-12-17T00:17:11.535Z,102382.06
2023-12-17T00:19:38.171Z,102387.94
2023-12-17T00:22:04.777Z,102384.25
2023-12-17T00:24:31.288Z,102373.72
2023-12-17T00:26:58.635Z,102371.91
2023-12-17T00:29:25.423Z,102376.44
2023-12-17T00:31:51.974Z,102378.06
2023-12-17T00:34:27.101Z,102369.03
2023-12-17T00:36:53.746Z,102374.09
2023-12-17T00:39:20.316Z,102372.16
2023-12-17T00:41:46.970Z,102380.91
2023-12-17T00:44:13.489Z,102373.63
2023-12-17T00:46:39.987Z,102392.66
2023-12-17T00:49:06.644Z,102386.09
2023-12-17T00:51:33.342Z,102397.56
2023-12-17T00:53:59.923Z,102392.34
2023-12-17T00:56:26.418Z,102380.34
2023-12-17T00:58:52.901Z,102385.53
2023-12-17T01:01:19.458Z,102398.91
2023-12-17T01:03:46.080Z,102394.38
2023-12-17T01:06:12.830Z,102392.72
2023-12-17T01:08:39.589Z,102384.00
2023-12-17T01:11:06.202Z,102383.31
2023-12-17T01:13:32.831Z,102383.00
2023-12-17T01:15:59.496Z,102382.03
2023-12-17T01:18:26.213Z,102389.47
2023-12-17T01:20:52.832Z,102388.38
2023-12-17T01:23:19.415Z,102384.63
2023-12-17T01:25:45.897Z,102390.66
2023-12-17T01:28:12.556Z,102389.03
2023-12-17T01:30:39.217Z,102389.72
2023-12-17T01:33:05.998Z,102385.31
2023-12-17T01:35:32.553Z,102395.56
2023-12-17T01:37:59.047Z,102403.09
2023-12-17T01:40:25.559Z,102411.16
2023-12-17T01:42:55.100Z,102414.44
2023-12-17T01:45:21.671Z,102421.28
2023-12-17T01:47:48.692Z,102406.50
2023-12-17T01:50:15.891Z,102414.44
2023-12-17T01:52:42.907Z,102418.69
2023-12-17T01:55:10.196Z,102423.06
2023-12-17T01:57:36.836Z,102425.38
2023-12-17T02:00:04.670Z,102427.81
2023-12-17T02:02:31.925Z,102431.25
2023-12-17T02:04:58.531Z,102419.34
2023-12-17T02:07:25.174Z,102434.81
2023-12-17T02:09:51.685Z,102438.22
2023-12-17T02:12:27.076Z,102428.50
2023-12-17T02:14:53.817Z,102424.41
2023-12-17T02:17:26.993Z,102413.03
2023-12-17T02:19:53.657Z,102400.03
2023-12-17T02:22:20.814Z,102401.97
2023-12-17T02:24:47.387Z,102407.16
2023-12-17T02:27:21.125Z,102406.06
2023-12-17T02:29:47.865Z,102408.66
2023-12-17T02:32:15.524Z,102413.56
2023-12-17T02:34:42.107Z,102404.00
2023-12-17T02:37:08.838Z,102410.81
2023-12-17T02:39:35.337Z,102413.56
2023-12-17T02:42:01.879Z,102423.81
2023-12-17T02:44:28.562Z,102416.69
2023-12-17T02:46:55.882Z,102420.13
2023-12-17T02:49:25.151Z,102415.72
2023-12-17T02:51:52.094Z,102413.13
2023-12-17T02:54:24.003Z,102423.38
2023-12-17T02:56:52.519Z,102408.91
2023-12-17T02:59:19.237Z,102406.16
2023-12-17T03:01:46.797Z,102409.72
2023-12-17T03:04:14.035Z,102399.16
2023-12-17T03:06:41.419Z,102411.03
2023-12-17T03:09:08.122Z,102405.31
2023-12-17T03:11:35.243Z,102416.09
2023-12-17T03:14:01.860Z,102417.75
2023-12-17T03:16:28.833Z,102406.66
2023-12-17T03:18:55.542Z,102422.66
2023-12-17T03:21:24.525Z,102405.69
2023-12-17T03:23:51.708Z,102423.63
2023-12-17T03:26:18.289Z,102422.66
2023-12-17T03:28:44.851Z,102422.78
2023-12-17T03:31:16.183Z,102421.81
2023-12-17T03:33:43.812Z,102421.66
2023-12-17T03:36:15.417Z,102420.72
2023-12-17T03:38:44.939Z,102415.53
2023-12-17T03:41:25.182Z,102412.09
2023-12-17T03:43:53.163Z,102412.09
2023-12-17T03:46:20.598Z,102407.72
2023-12-17T03:48:47.641Z,102409.34
2023-12-17T03:51:14.445Z,102412.78
2023-12-17T03:53:41.172Z,102417.97
2023-12-17T03:56:11.539Z,102418.66
2023-12-17T03:58:38.544Z,102415.06
2023-12-17T04:01:06.522Z,102406.31
2023-12-17T04:03:33.551Z,102400.13
2023-12-17T04:06:01.577Z,102422.56
2023-12-17T04:08:28.581Z,102418.88
2023-12-17T04:10:55.365Z,102422.28
2023-12-17T04:13:21.940Z,102407.63
2023-12-17T04:15:48.455Z,102420.63
2023-12-17T04:18:15.084Z,102413.00
2023-12-17T04:20:41.760Z,102405.19
2023-12-17T04:23:08.415Z,102409.56
2023-12-17T04:25:34.905Z,102403.88
2023-12-17T04:28:01.476Z,102411.38
2023-12-17T04:30:28.029Z,102416.41
2023-12-17T04:32:54.822Z,102416.56
2023-12-17T04:35:21.461Z,102408.09
2023-12-17T04:37:47.957Z,102418.34
2023-12-17T04:40:15.772Z,102400.97
2023-12-17T04:42:42.359Z,102413.00
2023-12-17T04:45:09.303Z,102420.94
2023-12-17T04:47:35.934Z,102428.44
2023-12-17T04:50:02.482Z,102429.41
2023-12-17T04:52:28.955Z,102437.22
2023-12-17T04:54:55.445Z,102445.56
2023-12-17T04:57:22.189Z,102439.00
2023-12-17T04:59:48.857Z,102444.88
2023-12-17T05:02:15.428Z,102461.16
2023-12-17T05:04:41.932Z,102447.31
2023-12-17T05:07:08.486Z,102450.91
2023-12-17T05:09:35.001Z,102437.38
2023-12-17T05:12:03.706Z,102438.47
2023-12-17T05:14:30.241Z,102441.06
2023-12-17T05:16:56.751Z,102431.81
2023-12-17T05:19:23.385Z,102443.28
2023-12-17T05:21:49.989Z,102448.13
2023-12-17T05:24:16.508Z,102458.81
2023-12-17T05:26:43.093Z,102453.91
2023-12-17T05:29:10.129Z,102457.16
2023-12-17T05:31:36.675Z,102445.28
2023-12-17T05:34:03.329Z,102450.34
2023-12-17T05:36:29.985Z,102448.88
2023-12-17T05:38:56.546Z,102451.47
2023-12-17T05:41:23.039Z,102448.88
2023-12-17T05:43:49.561Z,102445.59
2023-12-17T05:46:16.206Z,102448.03
2023-12-17T05:48:43.022Z,102438.59
2023-12-17T05:51:10.185Z,102437.50
2023-12-17T05:53:41.523Z,102433.91
2023-12-17T05:56:13.666Z,102426.13
2023-12-17T05:58:40.331Z,102428.06
2023-12-17T06:01:08.565Z,102426.13
2023-12-17T06:03:35.431Z,102434.91
2023-12-17T06:06:02.139Z,102420.75
2023-12-17T06:08:28.776Z,102422.28
2023-12-17T06:10:55.276Z,102426.78
2023-12-17T06:13:22.152Z,102428.28
2023-12-17T06:15:49.120Z,102416.91
2023-12-17T06:18:18.107Z,102427.31
2023-12-17T06:20:45.246Z,102424.19
2023-12-17T06:23:12.466Z,102425.03
2023-12-17T06:25:39.223Z,102419.16
2023-12-17T06:28:05.739Z,102423.38
2023-12-17T06:30:34.266Z,102419.53
2023-12-17T06:33:01.285Z,102427.16
2023-12-17T06:35:28.060Z,102429.78
2023-12-17T06:37:54.837Z,102423.78
2023-12-17T06:40:21.459Z,102427.84
2023-12-17T06:42:48.040Z,102429.09
2023-12-17T06:45:14.727Z,102427.03
2023-12-17T06:47:42.221Z,102427.31
2023-12-17T06:50:10.929Z,102428.00
2023-12-17T06:52:37.996Z,102427.03
2023-12-17T06:55:05.648Z,102423.63
2023-12-17T06:57:32.383Z,102421.03
2023-12-17T06:59:59.206Z,102432.22
2023-12-17T07:02:25.965Z,102429.09
2023-12-17T07:04:52.614Z,102424.03
2023-12-17T07:07:19.152Z,102423.09
2023-12-17T07:09:45.641Z,102426.22
2023-12-17T07:12:12.392Z,102425.25
2023-12-17T07:14:38.984Z,102416.47
2023-12-17T07:17:05.584Z,102416.63
2023-12-17T07:19:32.732Z,102426.06
2023-12-17T07:21:59.339Z,102424.28
2023-12-17T07:24:27.173Z,102425.09
2023-12-17T07:26:53.919Z,102438.09
2023-12-17T07:29:20.643Z,102443.16
2023-12-17T07:31:47.135Z,102438.63
2023-12-17T07:34:16.904Z,102436.19
2023-12-17T07:36:45.614Z,102449.03
2023-12-17T07:39:12.293Z,102451.78
2023-12-17T07:41:39.702Z,102446.56
2023-12-17T07:44:06.344Z,102456.53
2023-12-17T07:46:32.924Z,102440.28
2023-12-17T07:48:59.686Z,102433.28
2023-12-17T07:51:26.367Z,102431.50
2023-12-17T07:53:52.978Z,102428.75
2023-12-17T07:56:19.505Z,102439.00
2023-12-17T07:58:46.083Z,102435.44
2023-12-17T08:01:12.583Z,102429.94
2023-12-17T08:03:39.702Z,102426.22
2023-12-17T08:06:06.864Z,102427.88
2023-12-17T08:08:33.463Z,102431.00
2023-12-17T08:11:00.010Z,102442.06
2023-12-17T08:13:26.642Z,102429.19
2023-12-17T08:15:53.346Z,102431.06
2023-12-17T08:18:19.934Z,102448.16
2023-12-17T08:20:46.645Z,102445.41
2023-12-17T08:23:13.293Z,102443.50
2023-12-17T08:25:40.110Z,102433.72
2023-12-17T08:28:07.051Z,102434.25
2023-12-17T08:30:33.929Z,102434.91
2023-12-17T08:33:00.563Z,102433.00
2023-12-17T08:35:27.140Z,102411.34
2023-12-17T08:37:59.977Z,102417.59
2023-12-17T08:40:26.561Z,102396.75
2023-12-17T08:42:53.156Z,102394.69
2023-12-17T08:45:19.773Z,102412.59
2023-12-17T08:47:46.713Z,102401.44
2023-12-17T08:50:14.608Z,102409.91
2023-12-17T08:52:41.177Z,102409.91
2023-12-17T08:55:07.973Z,102400.44
2023-12-17T08:57:34.540Z,102409.28
2023-12-17T09:00:01.097Z,102403.66
2023-12-17T09:02:27.838Z,102397.97
2023-12-17T09:04:55.154Z,102408.91
2023-12-17T09:07:21.764Z,102406.81
2023-12-17T09:09:48.342Z,102396.78
2023-12-17T09:12:14.866Z,102404.94
2023-12-17T09:14:42.346Z,102405.44
2023-12-17T09:17:09.045Z,102404.19
2023-12-17T09:19:36.195Z,102400.25
2023-12-17T09:22:02.907Z,102384.13
2023-12-17T09:24:29.543Z,102394.72
2023-12-17T09:26:56.543Z,102390.94
2023-12-17T09:29:23.080Z,102382.31
2023-12-17T09:31:49.642Z,102381.34
2023-12-17T09:34:16.318Z,102381.19
2023-12-17T09:36:43.446Z,102396.53
2023-12-17T09:39:10.759Z,102409.38
2023-12-17T09:41:37.962Z,102406.47
2023-12-17T09:44:07.725Z,102403.19
2023-12-17T09:46:34.344Z,102414.13
2023-12-17T09:49:01.074Z,102417.41
2023-12-17T09:51:29.221Z,102420.16
2023-12-17T09:53:58.355Z,102413.31
2023-12-17T09:56:25.255Z,102416.06
2023-12-17T09:58:52.253Z,102409.75
2023-12-17T10:01:18.943Z,102402.44
2023-12-17T10:03:46.073Z,102401.75
2023-12-17T10:06:12.692Z,102397.50
2023-12-17T10:08:39.190Z,102408.44
2023-12-17T10:11:05.876Z,102401.09
2023-12-17T10:13:32.375Z,102407.50
2023-12-17T10:15:58.974Z,102406.84
2023-12-17T10:18:25.630Z,102401.97
2023-12-17T10:20:52.729Z,102407.16
2023-12-17T10:23:19.342Z,102407.50
2023-12-17T10:25:46.228Z,102397.41
2023-12-17T10:28:14.027Z,102397.25
2023-12-17T10:30:43.034Z,102382.13
2023-12-17T10:33:16.188Z,102380.78
2023-12-17T10:35:43.588Z,102370.69
2023-12-17T10:38:11.657Z,102360.75
2023-12-17T10:40:40.869Z,102357.16
2023-12-17T10:43:08.530Z,102370.53
2023-12-17T10:45:36.740Z,102378.53
2023-12-17T10:48:04.377Z,102382.63
2023-12-17T10:50:30.967Z,102394.16
2023-12-17T10:52:57.548Z,102404.91
2023-12-17T10:55:24.374Z,102393.97
2023-12-17T10:58:00.999Z,102406.19
2023-12-17T11:00:30.627Z,102395.13
2023-12-17T11:03:00.677Z,102389.75
2023-12-17T11:05:27.426Z,102387.16
2023-12-17T11:07:54.256Z,102386.00
2023-12-17T11:10:21.152Z,102382.63
2023-12-17T11:12:49.027Z,102382.16
2023-12-17T11:15:20.616Z,102378.25
2023-12-17T11:17:47.615Z,102367.84
2023-12-17T11:20:14.714Z,102376.00
2023-12-17T11:22:41.359Z,102365.91
2023-12-17T11:25:12.311Z,102358.59
2023-12-17T11:27:40.237Z,102353.38
2023-12-17T11:30:29.865Z,102348.50
2023-12-17T11:32:59.066Z,102350.28
2023-12-17T11:35:27.998Z,102346.69
2023-12-17T11:37:55.139Z,102346.34
2023-12-17T11:40:22.363Z,102351.88
2023-12-17T11:43:04.581Z,102342.09
2023-12-17T11:45:44.727Z,102345.81
2023-12-17T11:48:15.709Z,102346.81
2023-12-17T11:50:50.280Z,102345.34
2023-12-17T11:53:21.374Z,102340.00
2023-12-17T11:55:51.721Z,102336.09
2023-12-17T11:58:21.124Z,102346.50
2023-12-17T12:01:21.101Z,102337.69
2023-12-17T12:03:47.929Z,102335.41
2023-12-17T12:06:15.952Z,102341.91
2023-12-17T12:08:49.742Z,102327.41
2023-12-17T12:11:20.087Z,102325.63
2023-12-17T12:13:49.872Z,102317.16
2023-12-17T12:16:16.629Z,102321.19
2023-12-17T12:18:43.615Z,102318.75
2023-12-17T12:21:25.988Z,102318.25
2023-12-17T12:23:54.297Z,102320.50
2023-12-17T12:26:22.257Z,102316.41
2023-12-17T12:29:02.106Z,102317.22
2023-12-17T12:31:33.181Z,102306.78
2023-12-17T12:34:05.848Z,102322.09
2023-12-17T12:36:53.903Z,102314.94
2023-12-17T12:39:21.186Z,102315.09
2023-12-17T12:41:48.757Z,102321.78
2023-12-17T12:44:16.685Z,102313.00
2023-12-17T12:46:45.203Z,102327.34
2023-12-17T12:49:12.002Z,102331.88
2023-12-17T12:51:39.056Z,102332.53
2023-12-17T12:54:07.557Z,102338.56
2023-12-17T12:56:36.476Z,102329.75
2023-12-17T12:59:03.172Z,102344.28
2023-12-17T13:01:29.942Z,102334.63
2023-12-17T13:03:57.115Z,102344.72
2023-12-17T13:06:25.344Z,102346.81
2023-12-17T13:08:52.188Z,102351.22
2023-12-17T13:11:18.798Z,102343.09
2023-12-17T13:13:45.355Z,102338.56
2023-12-17T13:16:11.913Z,102338.38
2023-12-17T13:18:39.098Z,102341.66
2023-12-17T13:21:06.169Z,102330.41
2023-12-17T13:23:33.090Z,102321.13
2023-12-17T13:26:04.288Z,102323.09
2023-12-17T13:28:37.335Z,102306.50
2023-12-17T13:31:05.317Z,102313.00
2023-12-17T13:33:32.250Z,102317.41
2023-12-17T13:35:59.129Z,102325.69
2023-12-17T13:38:27.285Z,102319.34
2023-12-17T13:40:53.889Z,102318.66
2023-12-17T13:43:20.572Z,102318.00
2023-12-17T13:45:47.120Z,102308.56
2023-12-17T13:48:16.749Z,102311.66
2023-12-17T13:50:44.606Z,102301.25
2023-12-17T13:53:12.280Z,102287.91
2023-12-17T13:55:38.895Z,102298.81
2023-12-17T13:58:06.360Z,102301.59
2023-12-17T14:00:35.835Z,102308.41
2023-12-17T14:03:02.623Z,102310.19
2023-12-17T14:05:30.497Z,102306.13
2023-12-17T14:07:58.911Z,102310.81
2023-12-17T14:10:25.989Z,102310.66
2023-12-17T14:12:54.493Z,102311.00
2023-12-17T14:15:24.880Z,102298.63
2023-12-17T14:17:51.765Z,102308.38
2023-12-17T14:20:23.286Z,102317.81
2023-12-17T14:22:52.215Z,102314.53
2023-12-17T14:25:20.108Z,102310.31
2023-12-17T14:27:47.236Z,102289.13
2023-12-17T14:30:15.239Z,102311.88
2023-12-17T14:32:41.991Z,102284.66
2023-12-17T14:35:12.348Z,102307.81
2023-12-17T14:37:39.150Z,102304.03
2023-12-17T14:40:09.213Z,102292.63
2023-12-17T14:42:37.633Z,102309.25
2023-12-17T14:45:06.399Z,102303.38
2023-12-17T14:47:33.316Z,102302.69
2023-12-17T14:50:00.086Z,102297.00
2023-12-17T14:52:26.662Z,102299.44
2023-12-17T14:54:53.238Z,102300.56
2023-12-17T14:57:19.832Z,102302.66
2023-12-17T14:59:46.370Z,102296.13
2023-12-17T15:02:14.902Z,102307.97
2023-12-17T15:04:41.422Z,102314.16
2023-12-17T15:07:07.966Z,102322.44
2023-12-17T15:09:34.622Z,102310.38
2023-12-17T15:12:01.378Z,102294.56
2023-12-17T15:14:28.119Z,102296.19
2023-12-17T15:16:54.597Z,102297.16
2023-12-17T15:19:21.186Z,102304.13
2023-12-17T15:21:47.816Z,102301.69
2023-12-17T15:24:14.384Z,102305.13
2023-12-17T15:26:41.637Z,102305.28
2023-12-17T15:29:08.163Z,102307.06
2023-12-17T15:31:34.912Z,102312.41
2023-12-17T15:34:02.704Z,102284.53
2023-12-17T15:36:29.690Z,102294.94
2023-12-17T15:38:57.412Z,102298.84
2023-12-17T15:41:24.446Z,102297.88
2023-12-17T15:43:51.194Z,102303.00
2023-12-17T15:46:25.847Z,102305.94
2023-12-17T15:48:52.557Z,102298.56
2023-12-17T15:51:20.917Z,102304.59
2023-12-17T15:53:51.496Z,102300.34
2023-12-17T15:56:19.516Z,102295.97
2023-12-17T15:58:46.838Z,102285.84
2023-12-17T16:01:13.552Z,102287.94
2023-12-17T16:03:40.748Z,102279.47
2023-12-17T16:06:12.352Z,102277.19
2023-12-17T16:08:39.655Z,102284.31
2023-12-17T16:11:06.329Z,102282.69
2023-12-17T16:13:33.471Z,102287.88
2023-12-17T16:16:00.387Z,102288.84
2023-12-17T16:18:27.103Z,102282.16
2023-12-17T16:20:53.826Z,102290.41
2023-12-17T16:23:20.540Z,102279.22
2023-12-17T16:25:47.082Z,102269.91
2023-12-17T16:28:13.694Z,102287.28
2023-12-17T16:30:43.328Z,102285.81
2023-12-17T16:33:10.086Z,102297.31
2023-12-17T16:35:36.728Z,102274.06
2023-12-17T16:38:03.436Z,102291.00
2023-12-17T16:40:30.153Z,102285.13
2023-12-17T16:42:57.928Z,102282.53
2023-12-17T16:45:24.667Z,102284.31
2023-12-17T16:47:51.281Z,102286.41
2023-12-17T16:50:20.622Z,102292.72
2023-12-17T16:52:47.228Z,102278.38
2023-12-17T16:55:14.622Z,102276.25
2023-12-17T16:57:41.923Z,102282.91
2023-12-17T17:00:12.184Z,102271.72
2023-12-17T17:02:39.081Z,102270.22
2023-12-17T17:05:05.848Z,102278.16
2023-12-17T17:07:32.468Z,102272.28
2023-12-17T17:09:59.045Z,102261.81
2023-12-17T17:12:25.569Z,102259.69
2023-12-17T17:14:52.100Z,102259.81
2023-12-17T17:17:18.639Z,102248.25
2023-12-17T17:19:45.294Z,102245.91
2023-12-17T17:22:12.059Z,102249.78
2023-12-17T17:24:45.061Z,102235.97
2023-12-17T17:27:11.764Z,102234.00
2023-12-17T17:29:38.382Z,102232.13
2023-12-17T17:32:06.841Z,102219.06
2023-12-17T17:34:34.551Z,102229.59
2023-12-17T17:37:01.363Z,102238.09
2023-12-17T17:39:31.828Z,102218.19
2023-12-17T17:41:58.697Z,102217.44
2023-12-17T17:44:25.580Z,102206.66
2023-12-17T17:46:52.099Z,102205.06
2023-12-17T17:49:25.789Z,102205.00
2023-12-17T17:51:52.969Z,102209.66
2023-12-17T17:54:19.499Z,102221.41
2023-12-17T17:56:47.168Z,102214.81
2023-12-17T17:59:14.437Z,102208.16
2023-12-17T18:01:40.997Z,102206.25
2023-12-17T18:04:07.620Z,102198.91
2023-12-17T18:06:34.541Z,102206.44
2023-12-17T18:09:01.191Z,102203.47
2023-12-17T18:11:27.982Z,102206.06
2023-12-17T18:13:55.539Z,102200.47
2023-12-17T18:16:23.392Z,102192.03
2023-12-17T18:18:53.422Z,102183.16
2023-12-17T18:21:23.474Z,102194.38
2023-12-17T18:23:50.351Z,102181.94
2023-12-17T18:26:23.973Z,102188.91
2023-12-17T18:28:51.082Z,102189.88
2023-12-17T18:31:17.770Z,102182.09
2023-12-17T18:33:44.909Z,102186.59
2023-12-17T18:36:12.686Z,102187.72
2023-12-17T18:38:46.056Z,102190.31
2023-12-17T18:41:14.075Z,102179.09
2023-12-17T18:43:41.737Z,102189.63
2023-12-17T18:46:15.781Z,102177.75
2023-12-17T18:48:43.590Z,102177.75
2023-12-17T18:51:10.967Z,102180.63
2023-12-17T18:53:39.473Z,102176.00
2023-12-17T18:56:06.288Z,102182.66
2023-12-17T18:58:33.293Z,102176.13
2023-12-17T19:00:59.925Z,102166.19
2023-12-17T19:03:26.972Z,102163.06
2023-12-17T19:05:56.638Z,102169.19
2023-12-17T19:08:23.156Z,102165.94
2023-12-17T19:10:52.438Z,102152.56
2023-12-17T19:13:19.113Z,102158.44
2023-12-17T19:15:46.574Z,102148.19
2023-12-17T19:18:13.608Z,102146.72
2023-12-17T19:20:40.609Z,102140.03
2023-12-17T19:23:07.774Z,102158.28
2023-12-17T19:25:34.435Z,102164.72
2023-12-17T19:28:01.707Z,102152.03
2023-12-17T19:30:28.716Z,102146.59
2023-12-17T19:32:56.475Z,102139.34
2023-12-17T19:35:23.744Z,102150.84
2023-12-17T19:37:50.318Z,102143.06
2023-12-17T19:40:16.995Z,102136.50
2023-12-17T19:42:44.195Z,102138.56
2023-12-17T19:45:11.165Z,102134.19
2023-12-17T19:47:37.715Z,102135.28
2023-12-17T19:50:05.947Z,102127.78
2023-12-17T19:52:32.625Z,102135.03
2023-12-17T19:54:59.200Z,102130.66
2023-12-17T19:57:26.210Z,102127.38
2023-12-17T19:59:53.056Z,102130.81
2023-12-17T20:02:20.491Z,102136.91
2023-12-17T20:04:49.592Z,102132.72
2023-12-17T20:07:16.470Z,102137.34
2023-12-17T20:09:43.379Z,102130.09
2023-12-17T20:12:10.578Z,102127.38
2023-12-17T20:14:37.333Z,102137.88
2023-12-17T20:17:04.021Z,102135.28
2023-12-17T20:19:30.928Z,102140.47
2023-12-17T20:21:57.921Z,102143.72
2023-12-17T20:24:24.505Z,102140.72
2023-12-17T20:26:51.099Z,102142.25
2023-12-17T20:29:17.731Z,102134.47
2023-12-17T20:31:44.365Z,102121.13
2023-12-17T20:34:11.078Z,102133.09
2023-12-17T20:36:37.797Z,102138.28
2023-12-17T20:39:04.469Z,102115.97
2023-12-17T20:41:30.990Z,102122.50
2023-12-17T20:43:57.557Z,102118.53
2023-12-17T20:46:25.623Z,102115.00
2023-12-17T20:48:52.324Z,102115.69
2023-12-17T20:51:18.985Z,102122.63
2023-12-17T20:53:45.593Z,102110.22
2023-12-17T20:56:12.588Z,102107.91
2023-12-17T20:58:42.494Z,102122.75
2023-12-17T21:01:09.273Z,102120.84
2023-12-17T21:03:36.146Z,102114.56
2023-12-17T21:06:03.113Z,102123.84
2023-12-17T21:08:29.777Z,102123.72
2023-12-17T21:10:56.309Z,102127.53
2023-12-17T21:13:22.909Z,102122.06
2023-12-17T21:15:49.676Z,102123.69
2023-12-17T21:18:16.352Z,102117.97
2023-12-17T21:20:43.013Z,102129.81
2023-12-17T21:23:09.701Z,102115.13
2023-12-17T21:25:36.310Z,102112.25
2023-12-17T21:28:03.299Z,102121.38
2023-12-17T21:30:30.144Z,102110.03
2023-12-17T21:32:57.592Z,102106.91
2023-12-17T21:35:24.350Z,102103.66
2023-12-17T21:37:51.077Z,102102.81
2023-12-17T21:40:17.725Z,102108.81
2023-12-17T21:42:44.611Z,102102.03
2023-12-17T21:45:11.466Z,102102.97
2023-12-17T21:47:38.118Z,102093.28
2023-12-17T21:50:05.543Z,102077.22
2023-12-17T21:52:33.316Z,102082.94
2023-12-17T21:55:01.708Z,102090.41
2023-12-17T21:57:40.405Z,102086.75
2023-12-17T22:00:17.395Z,102081.41
2023-12-17T22:02:45.099Z,102086.47
2023-12-17T22:05:12.701Z,102081.28
2023-12-17T22:07:39.699Z,102073.50
2023-12-17T22:10:08.101Z,102077.06
2023-12-17T22:12:34.909Z,102081.03
2023-12-17T22:15:01.594Z,102076.09
2023-12-17T22:17:28.261Z,102074.03
2023-12-17T22:19:54.993Z,102072.13
2023-12-17T22:22:21.972Z,102075.41
2023-12-17T22:24:48.576Z,102070.91
2023-12-17T22:27:15.374Z,102066.53
2023-12-17T22:29:41.930Z,102058.59
2023-12-17T22:32:08.536Z,102060.78
2023-12-17T22:34:37.073Z,102059.53
2023-12-17T22:37:04.023Z,102058.72
2023-12-17T22:39:30.689Z,102054.72
2023-12-17T22:41:57.276Z,102054.09
2023-12-17T22:44:23.830Z,102056.25
2023-12-17T22:46:50.307Z,102050.91
2023-12-17T22:49:16.997Z,102039.88
2023-12-17T22:51:43.641Z,102053.22
2023-12-17T22:54:10.381Z,102052.41
2023-12-17T22:56:37.686Z,102067.09
2023-12-17T22:59:05.378Z,102063.25
2023-12-17T23:01:32.569Z,102054.81
2023-12-17T23:03:59.714Z,102052.50
2023-12-17T23:06:26.708Z,102063.41
2023-12-17T23:08:53.290Z,102065.69
2023-12-17T23:11:22.348Z,102065.41
2023-12-17T23:13:49.153Z,102059.56
2023-12-17T23:16:15.723Z,102054.09
2023-12-17T23:18:42.395Z,102052.19
2023-12-17T23:21:08.991Z,102052.03
2023-12-17T23:23:35.548Z,102050.69
2023-12-17T23:26:02.026Z,102049.75
2023-12-17T23:28:28.587Z,102044.56
2023-12-17T23:30:55.246Z,102037.19
2023-12-17T23:33:21.956Z,102049.75
2023-12-17T23:35:48.617Z,102036.91
2023-12-17T23:38:15.126Z,102035.13
2023-12-17T23:40:41.607Z,102038.69
2023-12-17T23:43:08.168Z,102023.28
2023-12-17T23:45:34.685Z,102031.44
2023-12-17T23:48:02.471Z,102021.34
2023-12-17T23:50:29.437Z,102020.56
2023-12-17T23:52:55.946Z,102018.22
2023-12-17T23:55:22.468Z,102002.97
2023-12-17T23:57:49.143Z,102002.66
